General Aviation Weather

Text Reports

Enter one or more of the following location identifiers separated by a space:

Zip Code, Four-Character ICAO or Three-Character IATA airport codes.

METAR - Aviation Routine Weather Report
KROS - Rush City, Minnesota
Updated at 8:16 AM GMT on December 29, 2014 (2:16 AM CST):
METAR KROS 290816Z AUTO 00000KT 10SM BKN110 M17/M20 A3043 RMK AO2 T11661198
TAF - Terminal Area Forecast
KROS - Rush City, Minnesota
Updated at 8:16 AM GMT on December 29, 2014 (2:16 AM CST):
No TAF is currently available for this location.
Decoded:
No decoded TAF is available.
PIREP - Pilot Weather Report
KROS - Rush City, Minnesota
Updated at 8:16 AM GMT on December 29, 2014 (2:16 AM CST):
No PIREP is currently available for this location.
AIRMET - Airmens Meteorological Information
KROS - Rush City, Minnesota
Updated at 8:16 AM GMT on December 29, 2014 (2:16 AM CST):
No AIRMET is currently available for this location.
SIGMET - Significant Meteorological Information
KROS - Rush City, Minnesota
Updated at 8:16 AM GMT on December 29, 2014 (2:16 AM CST):
No SIGMET is currently available for this location.
NOTAM - Notice to Airmen
KROS - Rush City, Minnesota
Updated at 8:16 AM GMT on December 29, 2014 (2:16 AM CST):
No NOTAM is currently available for this location.
Forecast Area
KROS - Rush City, Minnesota
Updated at 8:16 AM GMT on December 29, 2014 (2:16 AM CST):
No NOTAM is currently available for this location.
Aviation Weather Maps